createdAt,value
2022-11-25T00:01:09.986Z,101047.09
2022-11-25T00:03:36.738Z,101066.88
2022-11-25T00:06:13.429Z,101047.44
2022-11-25T00:08:41.610Z,101050.88
2022-11-25T00:11:08.948Z,101048.19
2022-11-25T00:13:36.257Z,101058.34
2022-11-25T00:16:07.999Z,101051.66
2022-11-25T00:18:34.876Z,101056.91
2022-11-25T00:21:12.467Z,101048.47
2022-11-25T00:23:39.074Z,101045.31
2022-11-25T00:26:10.250Z,101039.28
2022-11-25T00:28:38.404Z,101042.03
2022-11-25T00:31:09.473Z,101041.13
2022-11-25T00:33:36.356Z,101030.31
2022-11-25T00:36:04.315Z,101042.91
2022-11-25T00:38:30.781Z,101036.16
2022-11-25T00:41:15.855Z,101035.38
2022-11-25T00:44:00.990Z,101048.03
2022-11-25T00:46:27.459Z,101038.38
2022-11-25T00:48:53.912Z,101042.31
2022-11-25T00:51:20.340Z,101041.75
2022-11-25T00:53:46.763Z,101053.09
2022-11-25T00:56:13.206Z,101049.81
2022-11-25T00:58:40.570Z,101057.50
2022-11-25T01:01:07.079Z,101047.81
2022-11-25T01:03:34.941Z,101048.69
2022-11-25T01:06:02.172Z,101055.81
2022-11-25T01:08:33.323Z,101061.41
2022-11-25T01:11:00.734Z,101057.81
2022-11-25T01:13:27.303Z,101048.25
2022-11-25T01:15:53.788Z,101051.38
2022-11-25T01:18:20.340Z,101057.88
2022-11-25T01:20:46.807Z,101048.56
2022-11-25T01:23:13.290Z,101048.31
2022-11-25T01:25:40.268Z,101039.50
2022-11-25T01:28:06.711Z,101040.94
2022-11-25T01:30:35.919Z,101043.09
2022-11-25T01:33:06.231Z,101045.50
2022-11-25T01:35:32.693Z,101044.63
2022-11-25T01:37:59.110Z,101035.47
2022-11-25T01:40:25.584Z,101024.56
2022-11-25T01:42:52.017Z,101008.34
2022-11-25T01:45:28.374Z,101016.75
2022-11-25T01:47:58.796Z,101020.72
2022-11-25T01:50:26.479Z,101027.09
2022-11-25T01:52:53.929Z,101016.91
2022-11-25T01:55:27.075Z,101021.91
2022-11-25T01:58:17.851Z,101017.41
2022-11-25T02:00:51.463Z,101026.63
2022-11-25T02:03:26.048Z,101023.84
2022-11-25T02:06:17.737Z,101018.25
2022-11-25T02:08:48.533Z,101020.28
2022-11-25T02:11:16.182Z,101018.19
2022-11-25T02:13:43.521Z,101016.41
2022-11-25T02:16:09.987Z,101012.09
2022-11-25T02:18:36.462Z,101015.50
2022-11-25T02:21:02.955Z,101011.25
2022-11-25T02:23:36.187Z,101018.94
2022-11-25T02:26:02.972Z,101015.94
2022-11-25T02:28:31.547Z,101027.28
2022-11-25T02:30:58.588Z,101019.69
2022-11-25T02:33:25.918Z,101019.66
2022-11-25T02:35:59.357Z,101008.59
2022-11-25T02:38:46.018Z,101015.69
2022-11-25T02:41:21.508Z,101016.34
2022-11-25T02:43:48.331Z,101015.75
2022-11-25T02:46:21.804Z,101016.00
2022-11-25T02:51:35.699Z,101019.69
2022-11-25T02:54:02.329Z,101021.47
2022-11-25T02:56:31.689Z,101023.84
2022-11-25T02:58:58.645Z,101027.19
2022-11-25T03:01:25.219Z,101030.47
2022-11-25T03:03:51.742Z,101037.28
2022-11-25T03:06:18.512Z,101034.03
2022-11-25T03:08:45.026Z,101043.59
2022-11-25T03:11:11.493Z,101040.78
2022-11-25T03:13:37.947Z,101029.63
2022-11-25T03:16:04.827Z,101038.63
2022-11-25T03:18:31.330Z,101038.09
2022-11-25T03:20:57.776Z,101024.78
2022-11-25T03:23:24.803Z,101031.31
2022-11-25T03:25:51.274Z,101032.72
2022-11-25T03:28:17.740Z,101030.59
2022-11-25T03:30:44.320Z,101025.88
2022-11-25T03:33:11.048Z,101017.03
2022-11-25T03:35:37.549Z,101020.88
2022-11-25T03:38:04.119Z,101035.91
2022-11-25T03:40:30.557Z,101035.13
2022-11-25T03:42:57.008Z,101039.41
2022-11-25T03:45:23.438Z,101030.97
2022-11-25T03:47:49.962Z,101032.31
2022-11-25T03:50:16.728Z,101044.03
2022-11-25T03:52:43.224Z,101035.97
2022-11-25T03:55:10.183Z,101039.06
2022-11-25T03:57:36.670Z,101038.34
2022-11-25T04:00:04.627Z,101041.25
2022-11-25T04:02:31.127Z,101042.81
2022-11-25T04:04:57.819Z,101038.56
2022-11-25T04:07:24.312Z,101033.75
2022-11-25T04:09:50.832Z,101039.94
2022-11-25T04:12:36.034Z,101041.94
2022-11-25T04:15:03.034Z,101036.91
2022-11-25T04:17:29.495Z,101048.78
2022-11-25T04:19:55.944Z,101043.50
2022-11-25T04:22:22.410Z,101038.97
2022-11-25T04:24:48.896Z,101045.13
2022-11-25T04:27:15.350Z,101033.25
2022-11-25T04:29:41.780Z,101037.97
2022-11-25T04:32:08.230Z,101039.50
2022-11-25T04:34:34.998Z,101040.22
2022-11-25T04:37:01.592Z,101030.19
2022-11-25T04:39:28.020Z,101037.13
2022-11-25T04:42:17.343Z,101021.84
2022-11-25T04:44:55.903Z,101020.28
2022-11-25T04:47:30.382Z,101025.81
2022-11-25T04:49:56.812Z,101029.19
2022-11-25T04:52:23.338Z,101017.25
2022-11-25T04:54:49.800Z,101024.94
2022-11-25T04:57:16.806Z,101024.41
2022-11-25T04:59:43.744Z,101031.25
2022-11-25T05:02:17.855Z,101031.97
2022-11-25T05:04:45.742Z,101032.47
2022-11-25T05:07:13.255Z,101022.28
2022-11-25T05:09:40.036Z,101033.50
2022-11-25T05:12:07.976Z,101034.84
2022-11-25T05:14:35.894Z,101027.53
2022-11-25T05:17:03.902Z,101029.75
2022-11-25T05:19:30.437Z,101036.34
2022-11-25T05:21:56.870Z,101039.38
2022-11-25T05:24:24.333Z,101042.31
2022-11-25T05:26:50.808Z,101043.97
2022-11-25T05:29:17.364Z,101038.22
2022-11-25T05:31:43.808Z,101037.09
2022-11-25T05:34:10.312Z,101027.47
2022-11-25T05:36:37.011Z,101035.13
2022-11-25T05:39:04.172Z,101032.31
2022-11-25T05:41:30.652Z,101041.06
2022-11-25T05:43:57.214Z,101035.97
2022-11-25T05:46:23.694Z,101038.44
2022-11-25T05:48:53.655Z,101032.16
2022-11-25T05:51:20.170Z,101037.50
2022-11-25T05:53:46.661Z,101031.88
2022-11-25T05:56:13.111Z,101036.47
2022-11-25T05:58:39.643Z,101025.25
2022-11-25T06:01:10.835Z,101028.03
2022-11-25T06:03:37.751Z,101026.88
2022-11-25T06:06:05.398Z,101023.97
2022-11-25T06:08:32.358Z,101020.97
2022-11-25T06:10:58.814Z,101027.09
2022-11-25T06:13:25.772Z,101040.00
2022-11-25T06:15:52.285Z,101029.00
2022-11-25T06:18:19.169Z,101036.31
2022-11-25T06:20:45.932Z,101036.19
2022-11-25T06:23:12.362Z,101027.81
2022-11-25T06:25:38.835Z,101017.59
2022-11-25T06:28:12.683Z,101021.50
2022-11-25T06:30:39.875Z,101016.69
2022-11-25T06:33:06.318Z,101026.44
2022-11-25T06:35:32.761Z,101022.31
2022-11-25T06:37:59.774Z,101026.84
2022-11-25T06:40:26.261Z,101027.03
2022-11-25T06:42:52.774Z,101019.66
2022-11-25T06:45:19.302Z,101026.09
2022-11-25T06:47:45.755Z,101034.91
2022-11-25T06:50:12.287Z,101034.19
2022-11-25T06:52:38.755Z,101038.97
2022-11-25T06:55:05.577Z,101038.78
2022-11-25T06:57:32.131Z,101040.41
2022-11-25T06:59:58.656Z,101039.06
2022-11-25T07:02:25.103Z,101045.47
2022-11-25T07:04:51.656Z,101042.34
2022-11-25T07:07:18.208Z,101048.75
2022-11-25T07:09:44.839Z,101043.69
2022-11-25T07:12:12.410Z,101046.72
2022-11-25T07:14:39.206Z,101053.28
2022-11-25T07:17:11.530Z,101054.63
2022-11-25T07:19:38.613Z,101058.69
2022-11-25T07:22:05.087Z,101056.97
2022-11-25T07:24:31.563Z,101058.09
2022-11-25T07:26:58.050Z,101056.44
2022-11-25T07:32:11.355Z,101063.91
2022-11-25T07:34:38.164Z,101069.25
2022-11-25T07:37:04.600Z,101070.09
2022-11-25T07:39:31.138Z,101070.84
2022-11-25T07:41:57.559Z,101073.00
2022-11-25T07:44:24.012Z,101071.25
2022-11-25T07:46:51.399Z,101078.50
2022-11-25T07:49:20.949Z,101085.56
2022-11-25T07:51:48.924Z,101083.94
2022-11-25T07:54:15.540Z,101084.94
2022-11-25T07:56:44.861Z,101092.56
2022-11-25T07:59:21.775Z,101088.50
2022-11-25T08:01:55.523Z,101090.44
2022-11-25T08:04:22.636Z,101093.91
2022-11-25T08:06:51.419Z,101097.69
2022-11-25T08:09:20.863Z,101099.44
2022-11-25T08:11:48.312Z,101103.63
2022-11-25T08:14:15.465Z,101110.25
2022-11-25T08:16:42.345Z,101104.00
2022-11-25T08:19:11.929Z,101119.63
2022-11-25T08:21:38.433Z,101113.56
2022-11-25T08:24:05.383Z,101113.81
2022-11-25T08:26:36.280Z,101111.09
2022-11-25T08:29:04.171Z,101104.72
2022-11-25T08:31:33.702Z,101104.84
2022-11-25T08:34:00.560Z,101109.91
2022-11-25T08:36:28.055Z,101109.31
2022-11-25T08:38:57.794Z,101106.25
2022-11-25T08:41:27.101Z,101108.50
2022-11-25T08:43:53.576Z,101104.75
2022-11-25T08:46:22.605Z,101107.84
2022-11-25T08:48:49.159Z,101111.09
2022-11-25T08:51:18.417Z,101105.41
2022-11-25T08:53:45.846Z,101106.28
2022-11-25T08:56:12.654Z,101116.16
2022-11-25T08:58:39.430Z,101101.88
2022-11-25T09:01:07.482Z,101107.06
2022-11-25T09:03:43.151Z,101102.50
2022-11-25T09:06:10.546Z,101099.56
2022-11-25T09:08:37.769Z,101110.94
2022-11-25T09:11:04.453Z,101105.28
2022-11-25T09:13:30.988Z,101101.28
2022-11-25T09:15:57.994Z,101103.75
2022-11-25T09:18:26.287Z,101100.59
2022-11-25T09:20:54.003Z,101100.28
2022-11-25T09:23:20.802Z,101104.91
2022-11-25T09:25:54.805Z,101107.94
2022-11-25T09:28:22.202Z,101106.25
2022-11-25T09:30:49.032Z,101103.25
2022-11-25T09:33:15.708Z,101111.88
2022-11-25T09:35:42.483Z,101118.50
2022-11-25T09:38:09.066Z,101122.09
2022-11-25T09:40:53.880Z,101118.31
2022-11-25T09:44:11.927Z,101123.91
2022-11-25T09:46:47.264Z,101128.56
2022-11-25T09:49:32.599Z,101127.72
2022-11-25T09:52:37.075Z,101132.44
2022-11-25T09:55:17.016Z,101130.22
2022-11-25T09:57:49.436Z,101139.53
2022-11-25T10:00:19.776Z,101145.38
2022-11-25T10:03:01.656Z,101142.19
2022-11-25T10:05:34.130Z,101140.88
2022-11-25T10:08:07.612Z,101139.00
2022-11-25T10:10:46.224Z,101135.78
2022-11-25T10:13:21.166Z,101135.88
2022-11-25T10:15:50.280Z,101142.88
2022-11-25T10:18:34.947Z,101140.78
2022-11-25T10:21:01.431Z,101145.34
2022-11-25T10:23:32.456Z,101147.91
2022-11-25T10:26:10.615Z,101143.38
2022-11-25T10:28:38.171Z,101155.28
2022-11-25T10:31:11.373Z,101153.88
2022-11-25T10:33:41.209Z,101151.72
2022-11-25T10:36:11.539Z,101146.09
2022-11-25T10:38:45.385Z,101149.69
2022-11-25T10:41:16.439Z,101143.75
2022-11-25T10:43:43.576Z,101145.13
2022-11-25T10:47:11.527Z,101144.06
2022-11-25T10:49:31.102Z,101147.41
2022-11-25T10:51:57.921Z,101148.03
2022-11-25T10:54:27.829Z,101147.97
2022-11-25T10:56:57.765Z,101147.25
2022-11-25T10:59:25.600Z,101140.69
2022-11-25T11:01:53.428Z,101152.06
2022-11-25T11:04:20.500Z,101146.03
2022-11-25T11:06:49.742Z,101149.72
2022-11-25T11:09:33.296Z,101149.28
2022-11-25T11:12:27.242Z,101148.50
2022-11-25T11:14:55.011Z,101149.13
2022-11-25T11:17:34.753Z,101147.75
2022-11-25T11:20:04.758Z,101157.06
2022-11-25T11:22:32.143Z,101158.72
2022-11-25T11:25:29.282Z,101161.59
2022-11-25T11:27:56.003Z,101150.78
2022-11-25T11:30:28.556Z,101155.88
2022-11-25T11:33:02.260Z,101161.56
2022-11-25T11:35:53.964Z,101159.94
2022-11-25T11:38:27.924Z,101152.22
2022-11-25T11:41:00.682Z,101154.72
2022-11-25T11:43:48.370Z,101163.44
2022-11-25T11:46:37.574Z,101167.91
2022-11-25T11:49:41.645Z,101168.03
2022-11-25T11:52:43.600Z,101172.78
2022-11-25T11:55:45.329Z,101165.88
2022-11-25T11:58:21.468Z,101165.94
2022-11-25T12:01:07.637Z,101180.66
2022-11-25T12:03:39.976Z,101183.94
2022-11-25T12:06:06.755Z,101178.16
2022-11-25T12:08:51.882Z,101179.06
2022-11-25T12:11:23.004Z,101187.19
2022-11-25T12:14:11.539Z,101183.66
2022-11-25T12:16:43.188Z,101176.53
2022-11-25T12:19:31.134Z,101190.28
2022-11-25T12:22:08.822Z,101182.16
2022-11-25T12:24:58.770Z,101185.22
2022-11-25T12:27:47.384Z,101184.22
2022-11-25T12:30:19.685Z,101178.97
2022-11-25T12:33:04.590Z,101184.94
2022-11-25T12:35:37.584Z,101186.63
2022-11-25T12:38:18.156Z,101178.47
2022-11-25T12:40:54.407Z,101183.75
2022-11-25T12:43:39.539Z,101181.91
2022-11-25T12:46:18.043Z,101190.19
2022-11-25T12:48:44.893Z,101189.25
2022-11-25T12:51:20.498Z,101187.44
2022-11-25T12:54:17.907Z,101184.88
2022-11-25T12:57:07.089Z,101191.09
2022-11-25T13:00:06.046Z,101201.19
2022-11-25T13:02:54.018Z,101203.31
2022-11-25T13:05:54.119Z,101198.34
2022-11-25T13:08:38.821Z,101212.53
2022-11-25T13:11:11.645Z,101206.16
2022-11-25T13:13:47.584Z,101204.94
2022-11-25T13:16:14.909Z,101210.63
2022-11-25T13:18:44.437Z,101214.81
2022-11-25T13:21:13.351Z,101226.41
2022-11-25T13:23:52.917Z,101216.66
2022-11-25T13:26:28.700Z,101220.75
2022-11-25T13:28:56.247Z,101223.41
2022-11-25T13:31:25.181Z,101227.16
2022-11-25T13:34:30.284Z,101225.09
2022-11-25T13:36:58.482Z,101234.59
2022-11-25T13:39:33.482Z,101231.56
2022-11-25T13:42:10.982Z,101237.66
2022-11-25T13:44:50.385Z,101226.09
2022-11-25T13:47:35.620Z,101236.97
2022-11-25T13:50:04.656Z,101236.66
2022-11-25T13:52:35.345Z,101236.09
2022-11-25T13:55:29.140Z,101243.50
2022-11-25T13:58:10.971Z,101239.41
2022-11-25T14:00:37.395Z,101244.38
2022-11-25T14:03:19.197Z,101252.19
2022-11-25T14:05:57.827Z,101252.38
2022-11-25T14:08:43.547Z,101255.72
2022-11-25T14:11:09.957Z,101259.59
2022-11-25T14:13:58.615Z,101252.50
2022-11-25T14:16:43.821Z,101251.81
2022-11-25T14:19:50.657Z,101256.41
2022-11-25T14:22:35.723Z,101263.72
2022-11-25T14:25:19.833Z,101257.38
2022-11-25T14:27:49.087Z,101249.94
2022-11-25T14:30:17.068Z,101266.69
2022-11-25T14:32:57.619Z,101260.53
2022-11-25T14:35:32.725Z,101263.66
2022-11-25T14:38:44.576Z,101268.03
2022-11-25T14:41:23.968Z,101285.69
2022-11-25T14:44:04.127Z,101286.66
2022-11-25T14:46:30.667Z,101287.69
2022-11-25T14:48:59.308Z,101294.09
2022-11-25T14:51:27.693Z,101295.66
2022-11-25T14:53:54.738Z,101295.06
2022-11-25T14:56:24.460Z,101296.47
2022-11-25T14:58:52.189Z,101314.59
2022-11-25T15:01:28.499Z,101320.59
2022-11-25T15:04:19.499Z,101319.03
2022-11-25T15:06:57.779Z,101320.59
2022-11-25T15:09:25.498Z,101309.41
2022-11-25T15:12:16.839Z,101306.50
2022-11-25T15:14:48.947Z,101309.47
2022-11-25T15:17:28.349Z,101315.66
2022-11-25T15:19:57.616Z,101317.06
2022-11-25T15:22:24.738Z,101314.50
2022-11-25T15:24:55.913Z,101324.50
2022-11-25T15:27:28.434Z,101336.34
2022-11-25T15:29:56.040Z,101327.34
2022-11-25T15:32:31.568Z,101332.00
2022-11-25T15:34:59.975Z,101344.28
2022-11-25T15:37:27.195Z,101341.63
2022-11-25T15:40:31.298Z,101338.31
2022-11-25T15:42:59.941Z,101351.47
2022-11-25T15:45:27.612Z,101354.59
2022-11-25T15:47:54.225Z,101357.41
2022-11-25T15:50:25.354Z,101356.75
2022-11-25T15:52:54.496Z,101361.13
2022-11-25T15:55:33.123Z,101352.91
2022-11-25T15:58:11.314Z,101356.59
2022-11-25T16:00:38.231Z,101361.41
2022-11-25T16:03:19.120Z,101358.75
2022-11-25T16:05:56.543Z,101353.00
2022-11-25T16:08:30.859Z,101361.53
2022-11-25T16:11:00.232Z,101377.91
2022-11-25T16:13:30.542Z,101377.06
2022-11-25T16:16:00.138Z,101386.84
2022-11-25T16:18:41.236Z,101399.81
2022-11-25T16:21:10.965Z,101395.88
2022-11-25T16:23:43.018Z,101396.91
2022-11-25T16:26:12.434Z,101401.63
2022-11-25T16:28:49.898Z,101403.69
2022-11-25T16:31:17.176Z,101402.81
2022-11-25T16:33:43.689Z,101408.94
2022-11-25T16:36:10.138Z,101413.00
2022-11-25T16:38:36.612Z,101408.03
2022-11-25T16:41:20.594Z,101408.00
2022-11-25T16:43:47.071Z,101412.19
2022-11-25T16:46:19.037Z,101419.38
2022-11-25T16:48:46.084Z,101425.59
2022-11-25T16:51:24.122Z,101425.97
2022-11-25T16:53:50.932Z,101427.84
2022-11-25T16:56:29.729Z,101435.03
2022-11-25T16:58:57.691Z,101442.78
2022-11-25T17:01:27.046Z,101435.91
2022-11-25T17:03:54.601Z,101440.03
2022-11-25T17:06:24.280Z,101433.97
2022-11-25T17:08:51.938Z,101428.16
2022-11-25T17:11:27.066Z,101433.63
2022-11-25T17:13:54.403Z,101439.19
2022-11-25T17:16:23.881Z,101441.56
2022-11-25T17:18:52.598Z,101453.44
2022-11-25T17:21:19.054Z,101454.75
2022-11-25T17:23:49.175Z,101460.41
2022-11-25T17:26:24.744Z,101456.84
2022-11-25T17:28:58.399Z,101451.88
2022-11-25T17:31:27.458Z,101467.09
2022-11-25T17:33:54.063Z,101462.28
2022-11-25T17:36:21.234Z,101471.69
2022-11-25T17:38:48.370Z,101467.25
2022-11-25T17:41:16.622Z,101465.56
2022-11-25T17:43:44.468Z,101474.59
2022-11-25T17:46:11.962Z,101482.91
2022-11-25T17:48:39.340Z,101486.16
2022-11-25T17:51:07.578Z,101489.63
2022-11-25T17:53:37.880Z,101476.75
2022-11-25T17:56:26.525Z,101487.16
2022-11-25T17:58:53.149Z,101483.88
2022-11-25T18:01:19.718Z,101495.00
2022-11-25T18:03:46.332Z,101498.69
2022-11-25T18:06:12.812Z,101501.75
2022-11-25T18:08:39.333Z,101510.94
2022-11-25T18:11:06.726Z,101512.41
2022-11-25T18:13:39.695Z,101517.41
2022-11-25T18:16:07.776Z,101516.38
2022-11-25T18:18:34.497Z,101514.59
2022-11-25T18:21:02.438Z,101514.31
2022-11-25T18:23:28.918Z,101518.69
2022-11-25T18:25:56.734Z,101519.44
2022-11-25T18:28:27.005Z,101525.72
2022-11-25T18:30:55.880Z,101536.88
2022-11-25T18:33:22.462Z,101528.19
2022-11-25T18:35:48.874Z,101535.41
2022-11-25T18:38:15.583Z,101542.38
2022-11-25T18:40:46.395Z,101543.91
2022-11-25T18:43:18.215Z,101542.97
2022-11-25T18:45:45.027Z,101545.06
2022-11-25T18:48:15.240Z,101553.66
2022-11-25T18:50:42.410Z,101547.47
2022-11-25T18:53:08.855Z,101547.66
2022-11-25T18:55:35.404Z,101551.66
2022-11-25T18:58:02.589Z,101559.59
2022-11-25T19:00:32.662Z,101557.56
2022-11-25T19:02:59.861Z,101557.19
2022-11-25T19:05:30.121Z,101562.53
2022-11-25T19:07:57.022Z,101561.91
2022-11-25T19:10:32.051Z,101562.81
2022-11-25T19:13:01.581Z,101566.00
2022-11-25T19:15:28.205Z,101566.47
2022-11-25T19:18:00.780Z,101569.56
2022-11-25T19:20:28.555Z,101578.13
2022-11-25T19:23:00.303Z,101579.16
2022-11-25T19:25:27.307Z,101579.97
2022-11-25T19:27:56.789Z,101579.16
2022-11-25T19:30:26.181Z,101588.06
2022-11-25T19:32:54.865Z,101574.69
2022-11-25T19:35:33.659Z,101586.13
2022-11-25T19:38:00.128Z,101591.44
2022-11-25T19:40:26.661Z,101597.41
2022-11-25T19:42:53.140Z,101605.66
2022-11-25T19:45:20.743Z,101611.63
2022-11-25T19:47:49.943Z,101614.19
2022-11-25T19:50:22.537Z,101610.25
2022-11-25T19:52:49.881Z,101613.97
2022-11-25T19:55:24.667Z,101617.81
2022-11-25T19:57:51.495Z,101624.13
2022-11-25T20:00:19.630Z,101628.56
2022-11-25T20:02:46.939Z,101627.44
2022-11-25T20:05:19.800Z,101636.91
2022-11-25T20:07:47.130Z,101643.09
2022-11-25T20:10:40.106Z,101641.63
2022-11-25T20:13:06.671Z,101654.50
2022-11-25T20:15:33.127Z,101650.25
2022-11-25T20:18:00.776Z,101657.88
2022-11-25T20:20:28.927Z,101652.34
2022-11-25T20:22:59.645Z,101653.75
2022-11-25T20:25:26.758Z,101662.19
2022-11-25T20:27:53.832Z,101671.31
2022-11-25T20:30:25.909Z,101672.34
2022-11-25T20:32:52.504Z,101671.53
2022-11-25T20:35:19.415Z,101675.16
2022-11-25T20:37:53.980Z,101677.25
2022-11-25T20:40:23.748Z,101688.81
2022-11-25T20:42:50.582Z,101686.31
2022-11-25T20:45:22.074Z,101680.38
2022-11-25T20:47:50.910Z,101683.09
2022-11-25T20:50:19.148Z,101687.28
2022-11-25T20:52:46.938Z,101686.97
2022-11-25T20:55:24.879Z,101699.00
2022-11-25T20:57:52.151Z,101697.22
2022-11-25T21:00:24.185Z,101697.31
2022-11-25T21:02:53.074Z,101700.53
2022-11-25T21:05:20.117Z,101709.88
2022-11-25T21:07:47.815Z,101714.25
2022-11-25T21:10:27.756Z,101712.75
2022-11-25T21:12:55.245Z,101722.00
2022-11-25T21:15:23.943Z,101718.25
2022-11-25T21:17:50.692Z,101728.38
2022-11-25T21:20:18.368Z,101726.44
2022-11-25T21:22:47.178Z,101725.31
2022-11-25T21:25:15.975Z,101739.22
2022-11-25T21:27:42.959Z,101735.44
2022-11-25T21:30:27.233Z,101747.75
2022-11-25T21:32:55.868Z,101753.56
2022-11-25T21:35:24.642Z,101754.66
2022-11-25T21:37:51.144Z,101755.03
2022-11-25T21:40:31.298Z,101763.81
2022-11-25T21:42:58.106Z,101763.13
2022-11-25T21:45:24.623Z,101766.00
2022-11-25T21:47:51.062Z,101771.56
2022-11-25T21:50:19.501Z,101773.25
2022-11-25T21:52:46.011Z,101777.78
2022-11-25T21:55:13.678Z,101785.16
2022-11-25T21:57:40.387Z,101784.22
2022-11-25T22:00:19.871Z,101795.25
2022-11-25T22:02:46.946Z,101788.31
2022-11-25T22:05:17.873Z,101785.50
2022-11-25T22:07:44.495Z,101794.38
2022-11-25T22:10:12.727Z,101793.69
2022-11-25T22:12:41.629Z,101790.63
2022-11-25T22:15:28.677Z,101792.69
2022-11-25T22:17:57.682Z,101803.09
2022-11-25T22:20:40.388Z,101795.69
2022-11-25T22:23:16.569Z,101800.31
2022-11-25T22:25:43.247Z,101803.59
2022-11-25T22:28:21.622Z,101808.50
2022-11-25T22:30:50.442Z,101807.88
2022-11-25T22:33:17.276Z,101810.84
2022-11-25T22:35:43.736Z,101812.09
2022-11-25T22:38:15.175Z,101812.75
2022-11-25T22:40:43.224Z,101822.47
2022-11-25T22:43:21.589Z,101828.50
2022-11-25T22:45:48.112Z,101826.31
2022-11-25T22:48:17.024Z,101826.88
2022-11-25T22:50:45.529Z,101832.38
2022-11-25T22:53:17.230Z,101828.78
2022-11-25T22:55:44.792Z,101830.88
2022-11-25T22:58:13.254Z,101839.91
2022-11-25T23:00:42.694Z,101833.09
2022-11-25T23:03:19.911Z,101845.03
2022-11-25T23:05:46.618Z,101845.00
2022-11-25T23:08:18.892Z,101841.47
2022-11-25T23:10:45.473Z,101846.81
2022-11-25T23:13:12.571Z,101852.88
2022-11-25T23:15:41.821Z,101851.94
2022-11-25T23:18:17.376Z,101855.56
2022-11-25T23:20:43.901Z,101857.44
2022-11-25T23:23:22.047Z,101864.78
2022-11-25T23:25:49.060Z,101879.53
2022-11-25T23:28:16.397Z,101871.50
2022-11-25T23:30:52.287Z,101867.69
2022-11-25T23:33:32.498Z,101876.56
2022-11-25T23:36:02.461Z,101877.66
2022-11-25T23:38:31.399Z,101874.88
2022-11-25T23:40:57.869Z,101887.91
2022-11-25T23:43:24.399Z,101885.75
2022-11-25T23:45:56.081Z,101893.25
2022-11-25T23:48:28.223Z,101891.00
2022-11-25T23:50:55.980Z,101898.66
2022-11-25T23:53:26.703Z,101892.50
2022-11-25T23:55:53.487Z,101901.75
2022-11-25T23:58:21.331Z,101910.91
